sensor_id;sensor_type;location;lat;lon;timestamp;temperature;humidity
6054;DHT22;3055;50.886;14.814;2022-11-12T00:02:06;3.50;99.90
6054;DHT22;3055;50.886;14.814;2022-11-12T00:04:34;3.40;99.90
6054;DHT22;3055;50.886;14.814;2022-11-12T00:07:01;3.40;99.90
6054;DHT22;3055;50.886;14.814;2022-11-12T00:09:29;3.40;99.90
6054;DHT22;3055;50.886;14.814;2022-11-12T00:11:56;3.30;99.90
6054;DHT22;3055;50.886;14.814;2022-11-12T00:14:23;3.30;99.90
6054;DHT22;3055;50.886;14.814;2022-11-12T00:16:50;3.30;99.90
6054;DHT22;3055;50.886;14.814;2022-11-12T00:19:17;3.30;99.90
6054;DHT22;3055;50.886;14.814;2022-11-12T00:21:45;3.30;99.90
6054;DHT22;3055;50.886;14.814;2022-11-12T00:24:12;3.30;99.90
6054;DHT22;3055;50.886;14.814;2022-11-12T00:26:39;3.30;99.90
6054;DHT22;3055;50.886;14.814;2022-11-12T00:29:07;3.20;99.90
6054;DHT22;3055;50.886;14.814;2022-11-12T00:31:34;3.30;99.90
6054;DHT22;3055;50.886;14.814;2022-11-12T00:34:01;3.20;99.90
6054;DHT22;3055;50.886;14.814;2022-11-12T00:36:29;3.20;99.90
6054;DHT22;3055;50.886;14.814;2022-11-12T00:38:57;3.20;99.90
6054;DHT22;3055;50.886;14.814;2022-11-12T00:41:27;3.20;99.90
6054;DHT22;3055;50.886;14.814;2022-11-12T00:43:54;3.10;99.90
6054;DHT22;3055;50.886;14.814;2022-11-12T00:46:21;3.10;99.90
6054;DHT22;3055;50.886;14.814;2022-11-12T00:48:48;3.10;99.90
6054;DHT22;3055;50.886;14.814;2022-11-12T00:51:15;3.10;99.90
6054;DHT22;3055;50.886;14.814;2022-11-12T00:53:42;3.10;99.90
6054;DHT22;3055;50.886;14.814;2022-11-12T00:56:14;3.20;99.90
6054;DHT22;3055;50.886;14.814;2022-11-12T00:58:41;3.10;99.90
6054;DHT22;3055;50.886;14.814;2022-11-12T01:01:10;3.10;99.90
6054;DHT22;3055;50.886;14.814;2022-11-12T01:03:38;3.10;99.90
6054;DHT22;3055;50.886;14.814;2022-11-12T01:06:07;3.00;99.90
6054;DHT22;3055;50.886;14.814;2022-11-12T01:08:34;3.10;99.90
6054;DHT22;3055;50.886;14.814;2022-11-12T01:11:06;3.00;99.90
6054;DHT22;3055;50.886;14.814;2022-11-12T01:13:35;3.00;99.90
6054;DHT22;3055;50.886;14.814;2022-11-12T01:16:08;3.00;99.90
6054;DHT22;3055;50.886;14.814;2022-11-12T01:18:35;3.00;99.90
6054;DHT22;3055;50.886;14.814;2022-11-12T01:21:04;2.90;99.90
6054;DHT22;3055;50.886;14.814;2022-11-12T01:23:32;2.80;99.90
6054;DHT22;3055;50.886;14.814;2022-11-12T01:26:03;2.80;99.90
6054;DHT22;3055;50.886;14.814;2022-11-12T01:28:30;2.80;99.90
6054;DHT22;3055;50.886;14.814;2022-11-12T01:31:09;2.80;99.90
6054;DHT22;3055;50.886;14.814;2022-11-12T01:33:37;2.80;99.90
6054;DHT22;3055;50.886;14.814;2022-11-12T01:36:04;2.90;99.90
6054;DHT22;3055;50.886;14.814;2022-11-12T01:38:33;2.90;99.90
6054;DHT22;3055;50.886;14.814;2022-11-12T01:41:00;2.90;99.90
6054;DHT22;3055;50.886;14.814;2022-11-12T01:43:27;3.00;99.90
6054;DHT22;3055;50.886;14.814;2022-11-12T01:45:55;2.90;99.90
6054;DHT22;3055;50.886;14.814;2022-11-12T01:48:29;2.70;99.90
6054;DHT22;3055;50.886;14.814;2022-11-12T01:50:57;2.60;99.90
6054;DHT22;3055;50.886;14.814;2022-11-12T01:53:27;2.60;99.90
6054;DHT22;3055;50.886;14.814;2022-11-12T01:55:58;2.60;99.90
6054;DHT22;3055;50.886;14.814;2022-11-12T01:58:28;2.70;99.90
6054;DHT22;3055;50.886;14.814;2022-11-12T02:00:56;2.70;99.90
6054;DHT22;3055;50.886;14.814;2022-11-12T02:03:26;2.70;99.90
6054;DHT22;3055;50.886;14.814;2022-11-12T02:05:55;2.60;99.90
6054;DHT22;3055;50.886;14.814;2022-11-12T02:08:24;2.60;99.90
6054;DHT22;3055;50.886;14.814;2022-11-12T02:10:52;2.50;99.90
6054;DHT22;3055;50.886;14.814;2022-11-12T02:13:19;2.40;99.90
6054;DHT22;3055;50.886;14.814;2022-11-12T02:16:04;2.50;99.90
6054;DHT22;3055;50.886;14.814;2022-11-12T02:18:33;2.70;99.90
6054;DHT22;3055;50.886;14.814;2022-11-12T02:21:04;2.70;99.90
6054;DHT22;3055;50.886;14.814;2022-11-12T02:23:32;2.70;99.90
6054;DHT22;3055;50.886;14.814;2022-11-12T02:26:01;2.50;99.90
6054;DHT22;3055;50.886;14.814;2022-11-12T02:28:30;2.40;99.90
6054;DHT22;3055;50.886;14.814;2022-11-12T02:30:58;2.40;99.90
6054;DHT22;3055;50.886;14.814;2022-11-12T02:33:25;2.30;99.90
6054;DHT22;3055;50.886;14.814;2022-11-12T02:35:52;2.30;99.90
6054;DHT22;3055;50.886;14.814;2022-11-12T02:38:19;2.20;99.90
6054;DHT22;3055;50.886;14.814;2022-11-12T02:40:48;2.20;99.90
6054;DHT22;3055;50.886;14.814;2022-11-12T02:43:15;2.20;99.90
6054;DHT22;3055;50.886;14.814;2022-11-12T02:45:42;2.20;99.90
6054;DHT22;3055;50.886;14.814;2022-11-12T02:48:09;2.10;99.90
6054;DHT22;3055;50.886;14.814;2022-11-12T02:50:36;2.10;99.90
6054;DHT22;3055;50.886;14.814;2022-11-12T02:53:03;2.10;99.90
6054;DHT22;3055;50.886;14.814;2022-11-12T02:55:30;2.00;99.90
6054;DHT22;3055;50.886;14.814;2022-11-12T02:57:58;1.90;99.90
6054;DHT22;3055;50.886;14.814;2022-11-12T03:00:25;2.00;99.90
6054;DHT22;3055;50.886;14.814;2022-11-12T03:02:52;1.90;99.90
6054;DHT22;3055;50.886;14.814;2022-11-12T03:05:27;2.00;99.90
6054;DHT22;3055;50.886;14.814;2022-11-12T03:07:55;2.20;99.90
6054;DHT22;3055;50.886;14.814;2022-11-12T03:10:24;2.30;99.90
6054;DHT22;3055;50.886;14.814;2022-11-12T03:12:51;2.30;99.90
6054;DHT22;3055;50.886;14.814;2022-11-12T03:15:19;2.40;99.90
6054;DHT22;3055;50.886;14.814;2022-11-12T03:17:47;2.40;99.90
6054;DHT22;3055;50.886;14.814;2022-11-12T03:20:14;2.30;99.90
6054;DHT22;3055;50.886;14.814;2022-11-12T03:22:41;2.20;99.90
6054;DHT22;3055;50.886;14.814;2022-11-12T03:25:09;2.10;99.90
6054;DHT22;3055;50.886;14.814;2022-11-12T03:27:36;2.00;99.90
6054;DHT22;3055;50.886;14.814;2022-11-12T03:30:04;1.90;99.90
6054;DHT22;3055;50.886;14.814;2022-11-12T03:32:32;1.90;99.90
6054;DHT22;3055;50.886;14.814;2022-11-12T03:34:59;1.90;99.90
6054;DHT22;3055;50.886;14.814;2022-11-12T03:37:26;1.80;99.90
6054;DHT22;3055;50.886;14.814;2022-11-12T03:39:53;1.80;99.90
6054;DHT22;3055;50.886;14.814;2022-11-12T03:42:20;1.80;99.90
6054;DHT22;3055;50.886;14.814;2022-11-12T03:44:47;1.90;99.90
6054;DHT22;3055;50.886;14.814;2022-11-12T03:47:14;2.10;99.90
6054;DHT22;3055;50.886;14.814;2022-11-12T03:49:43;2.30;99.90
6054;DHT22;3055;50.886;14.814;2022-11-12T03:52:10;2.30;99.90
6054;DHT22;3055;50.886;14.814;2022-11-12T03:54:37;2.20;99.90
6054;DHT22;3055;50.886;14.814;2022-11-12T03:57:04;2.10;99.90
6054;DHT22;3055;50.886;14.814;2022-11-12T03:59:31;1.90;99.90
6054;DHT22;3055;50.886;14.814;2022-11-12T04:01:58;1.90;99.90
6054;DHT22;3055;50.886;14.814;2022-11-12T04:04:25;1.90;99.90
6054;DHT22;3055;50.886;14.814;2022-11-12T04:07:14;1.90;99.90
6054;DHT22;3055;50.886;14.814;2022-11-12T04:09:58;1.80;99.90
6054;DHT22;3055;50.886;14.814;2022-11-12T04:12:25;1.80;99.90
6054;DHT22;3055;50.886;14.814;2022-11-12T04:15:10;1.70;99.90
6054;DHT22;3055;50.886;14.814;2022-11-12T04:17:37;1.70;99.90
6054;DHT22;3055;50.886;14.814;2022-11-12T04:20:21;1.70;99.90
6054;DHT22;3055;50.886;14.814;2022-11-12T04:23:07;1.80;99.90
6054;DHT22;3055;50.886;14.814;2022-11-12T04:25:34;1.80;99.90
6054;DHT22;3055;50.886;14.814;2022-11-12T04:28:18;1.80;99.90
6054;DHT22;3055;50.886;14.814;2022-11-12T04:30:45;1.70;99.90
6054;DHT22;3055;50.886;14.814;2022-11-12T04:33:11;1.70;99.90
6054;DHT22;3055;50.886;14.814;2022-11-12T04:35:38;1.70;99.90
6054;DHT22;3055;50.886;14.814;2022-11-12T04:38:07;1.70;99.90
6054;DHT22;3055;50.886;14.814;2022-11-12T04:40:34;1.80;99.90
6054;DHT22;3055;50.886;14.814;2022-11-12T04:43:18;1.70;99.90
6054;DHT22;3055;50.886;14.814;2022-11-12T04:46:03;1.60;99.90
6054;DHT22;3055;50.886;14.814;2022-11-12T04:48:31;1.60;99.90
6054;DHT22;3055;50.886;14.814;2022-11-12T04:50:59;1.50;99.90
6054;DHT22;3055;50.886;14.814;2022-11-12T04:53:29;1.50;99.90
6054;DHT22;3055;50.886;14.814;2022-11-12T04:55:57;1.50;99.90
6054;DHT22;3055;50.886;14.814;2022-11-12T04:58:24;1.50;99.90
6054;DHT22;3055;50.886;14.814;2022-11-12T05:00:51;1.50;99.90
6054;DHT22;3055;50.886;14.814;2022-11-12T05:03:18;1.50;99.90
6054;DHT22;3055;50.886;14.814;2022-11-12T05:05:45;1.50;99.90
6054;DHT22;3055;50.886;14.814;2022-11-12T05:08:13;1.50;99.90
6054;DHT22;3055;50.886;14.814;2022-11-12T05:10:41;1.60;99.90
6054;DHT22;3055;50.886;14.814;2022-11-12T05:13:08;1.60;99.90
6054;DHT22;3055;50.886;14.814;2022-11-12T05:15:35;1.60;99.90
6054;DHT22;3055;50.886;14.814;2022-11-12T05:18:02;1.60;99.90
6054;DHT22;3055;50.886;14.814;2022-11-12T05:20:29;1.60;99.90
6054;DHT22;3055;50.886;14.814;2022-11-12T05:22:56;1.60;99.90
6054;DHT22;3055;50.886;14.814;2022-11-12T05:25:23;1.60;99.90
6054;DHT22;3055;50.886;14.814;2022-11-12T05:27:52;1.60;99.90
6054;DHT22;3055;50.886;14.814;2022-11-12T05:30:19;1.60;99.90
6054;DHT22;3055;50.886;14.814;2022-11-12T05:32:46;1.60;99.90
6054;DHT22;3055;50.886;14.814;2022-11-12T05:35:13;1.60;99.90
6054;DHT22;3055;50.886;14.814;2022-11-12T05:37:40;1.50;99.90
6054;DHT22;3055;50.886;14.814;2022-11-12T05:40:08;1.40;99.90
6054;DHT22;3055;50.886;14.814;2022-11-12T05:42:35;1.40;99.90
6054;DHT22;3055;50.886;14.814;2022-11-12T05:45:05;1.50;99.90
6054;DHT22;3055;50.886;14.814;2022-11-12T05:47:32;1.70;99.90
6054;DHT22;3055;50.886;14.814;2022-11-12T05:49:59;1.70;99.90
6054;DHT22;3055;50.886;14.814;2022-11-12T05:52:26;1.70;99.90
6054;DHT22;3055;50.886;14.814;2022-11-12T05:54:53;1.50;99.90
6054;DHT22;3055;50.886;14.814;2022-11-12T05:57:20;1.40;99.90
6054;DHT22;3055;50.886;14.814;2022-11-12T05:59:47;1.30;99.90
6054;DHT22;3055;50.886;14.814;2022-11-12T06:02:16;1.30;99.90
6054;DHT22;3055;50.886;14.814;2022-11-12T06:04:43;1.20;99.90
6054;DHT22;3055;50.886;14.814;2022-11-12T06:07:10;1.10;99.90
6054;DHT22;3055;50.886;14.814;2022-11-12T06:09:37;1.00;99.90
6054;DHT22;3055;50.886;14.814;2022-11-12T06:12:04;1.00;99.90
6054;DHT22;3055;50.886;14.814;2022-11-12T06:14:33;1.00;99.90
6054;DHT22;3055;50.886;14.814;2022-11-12T06:17:00;1.00;99.90
6054;DHT22;3055;50.886;14.814;2022-11-12T06:19:28;1.10;99.90
6054;DHT22;3055;50.886;14.814;2022-11-12T06:21:55;1.00;99.90
6054;DHT22;3055;50.886;14.814;2022-11-12T06:24:22;1.00;99.90
6054;DHT22;3055;50.886;14.814;2022-11-12T06:26:49;1.00;99.90
6054;DHT22;3055;50.886;14.814;2022-11-12T06:29:16;1.00;99.90
6054;DHT22;3055;50.886;14.814;2022-11-12T06:31:43;1.00;99.90
6054;DHT22;3055;50.886;14.814;2022-11-12T06:34:10;1.00;99.90
6054;DHT22;3055;50.886;14.814;2022-11-12T06:36:39;1.10;99.90
6054;DHT22;3055;50.886;14.814;2022-11-12T06:39:06;1.20;99.90
6054;DHT22;3055;50.886;14.814;2022-11-12T06:41:33;1.40;99.90
6054;DHT22;3055;50.886;14.814;2022-11-12T06:44:00;1.60;99.90
6054;DHT22;3055;50.886;14.814;2022-11-12T06:46:29;1.70;99.90
6054;DHT22;3055;50.886;14.814;2022-11-12T06:48:56;1.70;99.90
6054;DHT22;3055;50.886;14.814;2022-11-12T06:51:23;1.60;99.90
6054;DHT22;3055;50.886;14.814;2022-11-12T06:53:51;1.60;99.90
6054;DHT22;3055;50.886;14.814;2022-11-12T06:56:19;1.60;99.90
6054;DHT22;3055;50.886;14.814;2022-11-12T06:58:46;1.60;99.90
6054;DHT22;3055;50.886;14.814;2022-11-12T07:01:15;1.70;99.90
6054;DHT22;3055;50.886;14.814;2022-11-12T07:03:43;1.80;99.90
6054;DHT22;3055;50.886;14.814;2022-11-12T07:06:12;1.90;99.90
6054;DHT22;3055;50.886;14.814;2022-11-12T07:08:40;2.00;99.90
6054;DHT22;3055;50.886;14.814;2022-11-12T07:11:09;2.20;99.90
6054;DHT22;3055;50.886;14.814;2022-11-12T07:13:36;2.30;99.90
6054;DHT22;3055;50.886;14.814;2022-11-12T07:16:05;2.40;99.90
6054;DHT22;3055;50.886;14.814;2022-11-12T07:18:33;2.50;99.90
6054;DHT22;3055;50.886;14.814;2022-11-12T07:21:02;2.60;99.90
6054;DHT22;3055;50.886;14.814;2022-11-12T07:23:31;2.80;99.90
6054;DHT22;3055;50.886;14.814;2022-11-12T07:26:01;2.90;99.90
6054;DHT22;3055;50.886;14.814;2022-11-12T07:28:30;3.00;99.90
6054;DHT22;3055;50.886;14.814;2022-11-12T07:30:58;3.00;99.90
6054;DHT22;3055;50.886;14.814;2022-11-12T07:33:26;2.90;99.90
6054;DHT22;3055;50.886;14.814;2022-11-12T07:35:57;3.00;99.90
6054;DHT22;3055;50.886;14.814;2022-11-12T07:38:26;3.00;99.90
6054;DHT22;3055;50.886;14.814;2022-11-12T07:40:58;3.00;99.90
6054;DHT22;3055;50.886;14.814;2022-11-12T07:43:26;3.10;99.90
6054;DHT22;3055;50.886;14.814;2022-11-12T07:45:56;3.20;99.90
6054;DHT22;3055;50.886;14.814;2022-11-12T07:48:24;3.30;99.90
6054;DHT22;3055;50.886;14.814;2022-11-12T07:50:51;3.40;99.90
6054;DHT22;3055;50.886;14.814;2022-11-12T07:53:18;3.40;99.90
6054;DHT22;3055;50.886;14.814;2022-11-12T07:55:52;3.50;99.90
6054;DHT22;3055;50.886;14.814;2022-11-12T07:58:20;3.50;99.90
6054;DHT22;3055;50.886;14.814;2022-11-12T08:00:47;3.60;99.90
6054;DHT22;3055;50.886;14.814;2022-11-12T08:03:15;3.70;99.90
6054;DHT22;3055;50.886;14.814;2022-11-12T08:05:42;3.90;99.90
6054;DHT22;3055;50.886;14.814;2022-11-12T08:08:10;4.10;99.90
6054;DHT22;3055;50.886;14.814;2022-11-12T08:10:37;4.20;99.90
6054;DHT22;3055;50.886;14.814;2022-11-12T08:13:04;4.50;99.90
6054;DHT22;3055;50.886;14.814;2022-11-12T08:15:31;4.70;99.90
6054;DHT22;3055;50.886;14.814;2022-11-12T08:17:58;5.00;99.90
6054;DHT22;3055;50.886;14.814;2022-11-12T08:20:27;5.00;99.90
6054;DHT22;3055;50.886;14.814;2022-11-12T08:22:59;5.00;99.90
6054;DHT22;3055;50.886;14.814;2022-11-12T08:25:26;5.00;99.90
6054;DHT22;3055;50.886;14.814;2022-11-12T08:27:55;5.20;99.90
6054;DHT22;3055;50.886;14.814;2022-11-12T08:30:23;5.30;99.90
6054;DHT22;3055;50.886;14.814;2022-11-12T08:32:55;5.40;99.90
6054;DHT22;3055;50.886;14.814;2022-11-12T08:35:22;5.50;99.90
6054;DHT22;3055;50.886;14.814;2022-11-12T08:37:51;5.70;99.90
6054;DHT22;3055;50.886;14.814;2022-11-12T08:40:18;5.70;99.90
6054;DHT22;3055;50.886;14.814;2022-11-12T08:42:45;5.80;99.90
6054;DHT22;3055;50.886;14.814;2022-11-12T08:45:12;5.90;99.90
6054;DHT22;3055;50.886;14.814;2022-11-12T08:47:39;5.90;99.90
6054;DHT22;3055;50.886;14.814;2022-11-12T08:50:07;5.90;99.90
6054;DHT22;3055;50.886;14.814;2022-11-12T08:52:34;5.90;99.90
6054;DHT22;3055;50.886;14.814;2022-11-12T08:55:03;6.00;99.90
6054;DHT22;3055;50.886;14.814;2022-11-12T08:57:30;6.10;99.90
6054;DHT22;3055;50.886;14.814;2022-11-12T08:59:57;6.20;99.90
6054;DHT22;3055;50.886;14.814;2022-11-12T09:02:24;6.30;99.90
6054;DHT22;3055;50.886;14.814;2022-11-12T09:04:51;6.30;99.90
6054;DHT22;3055;50.886;14.814;2022-11-12T09:07:18;6.30;99.90
6054;DHT22;3055;50.886;14.814;2022-11-12T09:09:46;6.40;99.90
6054;DHT22;3055;50.886;14.814;2022-11-12T09:12:14;6.50;99.90
6054;DHT22;3055;50.886;14.814;2022-11-12T09:14:44;6.50;99.90
6054;DHT22;3055;50.886;14.814;2022-11-12T09:17:11;6.60;99.90
6054;DHT22;3055;50.886;14.814;2022-11-12T09:19:38;6.70;99.90
6054;DHT22;3055;50.886;14.814;2022-11-12T09:22:05;6.70;99.90
6054;DHT22;3055;50.886;14.814;2022-11-12T09:24:32;6.80;99.90
6054;DHT22;3055;50.886;14.814;2022-11-12T09:27:02;6.90;99.90
6054;DHT22;3055;50.886;14.814;2022-11-12T09:29:32;6.90;99.90
6054;DHT22;3055;50.886;14.814;2022-11-12T09:31:59;7.00;99.90
6054;DHT22;3055;50.886;14.814;2022-11-12T09:34:26;7.10;99.90
6054;DHT22;3055;50.886;14.814;2022-11-12T09:36:54;7.10;99.90
6054;DHT22;3055;50.886;14.814;2022-11-12T09:39:24;7.10;99.90
6054;DHT22;3055;50.886;14.814;2022-11-12T09:41:51;7.20;99.90
6054;DHT22;3055;50.886;14.814;2022-11-12T09:44:23;7.40;99.90
6054;DHT22;3055;50.886;14.814;2022-11-12T09:46:54;7.40;99.90
6054;DHT22;3055;50.886;14.814;2022-11-12T09:49:29;7.40;99.90
6054;DHT22;3055;50.886;14.814;2022-11-12T09:52:02;7.40;79.20
6054;DHT22;3055;50.886;14.814;2022-11-12T09:54:31;7.40;99.90
6054;DHT22;3055;50.886;14.814;2022-11-12T09:56:59;7.30;99.90
6054;DHT22;3055;50.886;14.814;2022-11-12T09:59:29;7.40;72.20
6054;DHT22;3055;50.886;14.814;2022-11-12T10:02:04;7.30;99.90
6054;DHT22;3055;50.886;14.814;2022-11-12T10:04:53;7.30;99.90
6054;DHT22;3055;50.886;14.814;2022-11-12T10:07:42;7.30;99.90
6054;DHT22;3055;50.886;14.814;2022-11-12T10:10:15;7.40;99.90
6054;DHT22;3055;50.886;14.814;2022-11-12T10:12:58;7.40;91.80
6054;DHT22;3055;50.886;14.814;2022-11-12T10:15:37;7.50;99.90
6054;DHT22;3055;50.886;14.814;2022-11-12T10:18:38;7.60;99.90
6054;DHT22;3055;50.886;14.814;2022-11-12T10:21:18;7.70;67.20
6054;DHT22;3055;50.886;14.814;2022-11-12T10:23:50;7.80;95.80
6054;DHT22;3055;50.886;14.814;2022-11-12T10:26:19;7.80;52.60
6054;DHT22;3055;50.886;14.814;2022-11-12T10:28:49;7.90;81.10
6054;DHT22;3055;50.886;14.814;2022-11-12T10:31:19;8.00;73.90
6054;DHT22;3055;50.886;14.814;2022-11-12T10:33:48;7.90;84.70
6054;DHT22;3055;50.886;14.814;2022-11-12T10:36:27;7.90;99.90
6054;DHT22;3055;50.886;14.814;2022-11-12T10:38:56;7.90;99.90
6054;DHT22;3055;50.886;14.814;2022-11-12T10:41:27;8.10;57.50
6054;DHT22;3055;50.886;14.814;2022-11-12T10:44:00;8.20;63.60
6054;DHT22;3055;50.886;14.814;2022-11-12T10:46:29;8.20;50.60
6054;DHT22;3055;50.886;14.814;2022-11-12T10:49:00;8.30;77.00
6054;DHT22;3055;50.886;14.814;2022-11-12T10:51:31;8.20;14.20
6054;DHT22;3055;50.886;14.814;2022-11-12T10:54:23;8.30;28.00
6054;DHT22;3055;50.886;14.814;2022-11-12T10:56:53;8.30;13.40
6054;DHT22;3055;50.886;14.814;2022-11-12T10:59:23;8.40;3.30
6054;DHT22;3055;50.886;14.814;2022-11-12T11:01:54;8.50;5.30
6054;DHT22;3055;50.886;14.814;2022-11-12T11:04:28;8.50;16.40
6054;DHT22;3055;50.886;14.814;2022-11-12T11:07:03;8.50;20.50
6054;DHT22;3055;50.886;14.814;2022-11-12T11:09:32;8.50;9.10
6054;DHT22;3055;50.886;14.814;2022-11-12T11:12:04;8.60;1.00
6054;DHT22;3055;50.886;14.814;2022-11-12T11:14:33;8.70;1.00
6054;DHT22;3055;50.886;14.814;2022-11-12T11:17:10;8.60;1.00
6054;DHT22;3055;50.886;14.814;2022-11-12T11:19:42;8.70;1.00
6054;DHT22;3055;50.886;14.814;2022-11-12T11:22:22;8.80;1.00
6054;DHT22;3055;50.886;14.814;2022-11-12T11:25:11;8.80;1.00
6054;DHT22;3055;50.886;14.814;2022-11-12T11:27:49;9.00;1.00
6054;DHT22;3055;50.886;14.814;2022-11-12T11:30:21;8.90;1.00
6054;DHT22;3055;50.886;14.814;2022-11-12T11:35:53;8.90;1.00
6054;DHT22;3055;50.886;14.814;2022-11-12T11:38:38;8.90;1.00
6054;DHT22;3055;50.886;14.814;2022-11-12T11:41:34;8.90;1.00
6054;DHT22;3055;50.886;14.814;2022-11-12T11:44:13;8.90;3.60
6054;DHT22;3055;50.886;14.814;2022-11-12T11:46:56;9.00;5.90
6054;DHT22;3055;50.886;14.814;2022-11-12T11:49:41;9.00;4.60
6054;DHT22;3055;50.886;14.814;2022-11-12T11:52:29;9.20;1.00
6054;DHT22;3055;50.886;14.814;2022-11-12T11:55:07;9.30;1.00
6054;DHT22;3055;50.886;14.814;2022-11-12T11:57:40;9.30;1.00
6054;DHT22;3055;50.886;14.814;2022-11-12T12:00:14;9.30;1.00
6054;DHT22;3055;50.886;14.814;2022-11-12T12:03:03;9.20;1.00
6054;DHT22;3055;50.886;14.814;2022-11-12T12:05:41;9.20;1.00
6054;DHT22;3055;50.886;14.814;2022-11-12T12:08:14;9.20;1.00
6054;DHT22;3055;50.886;14.814;2022-11-12T12:10:49;9.20;1.00
6054;DHT22;3055;50.886;14.814;2022-11-12T12:13:26;9.30;1.00
6054;DHT22;3055;50.886;14.814;2022-11-12T12:16:20;9.20;1.00
6054;DHT22;3055;50.886;14.814;2022-11-12T12:18:54;9.30;1.00
6054;DHT22;3055;50.886;14.814;2022-11-12T12:21:24;9.30;1.00
6054;DHT22;3055;50.886;14.814;2022-11-12T12:24:01;9.40;1.00
6054;DHT22;3055;50.886;14.814;2022-11-12T12:26:34;9.40;1.00
6054;DHT22;3055;50.886;14.814;2022-11-12T12:29:06;9.40;1.00
6054;DHT22;3055;50.886;14.814;2022-11-12T12:31:40;9.50;1.00
6054;DHT22;3055;50.886;14.814;2022-11-12T12:34:17;9.60;1.00
6054;DHT22;3055;50.886;14.814;2022-11-12T12:36:49;9.70;1.00
6054;DHT22;3055;50.886;14.814;2022-11-12T12:39:24;9.70;1.00
6054;DHT22;3055;50.886;14.814;2022-11-12T12:41:55;9.80;1.00
6054;DHT22;3055;50.886;14.814;2022-11-12T12:44:25;9.80;1.00
6054;DHT22;3055;50.886;14.814;2022-11-12T12:47:14;9.90;1.00
6054;DHT22;3055;50.886;14.814;2022-11-12T12:49:43;10.00;1.00
6054;DHT22;3055;50.886;14.814;2022-11-12T12:52:12;10.10;1.00
6054;DHT22;3055;50.886;14.814;2022-11-12T12:54:57;10.20;1.00
6054;DHT22;3055;50.886;14.814;2022-11-12T12:57:29;10.50;1.00
6054;DHT22;3055;50.886;14.814;2022-11-12T13:00:25;10.50;1.00
6054;DHT22;3055;50.886;14.814;2022-11-12T13:02:53;10.60;1.00
6054;DHT22;3055;50.886;14.814;2022-11-12T13:05:29;10.70;99.90
6054;DHT22;3055;50.886;14.814;2022-11-12T13:08:00;10.70;1.00
6054;DHT22;3055;50.886;14.814;2022-11-12T13:10:50;10.60;1.00
6054;DHT22;3055;50.886;14.814;2022-11-12T13:13:39;10.70;99.90
6054;DHT22;3055;50.886;14.814;2022-11-12T13:16:06;10.90;99.90
6054;DHT22;3055;50.886;14.814;2022-11-12T13:18:59;11.10;99.90
6054;DHT22;3055;50.886;14.814;2022-11-12T13:21:28;11.20;99.90
6054;DHT22;3055;50.886;14.814;2022-11-12T13:23:57;11.40;99.90
6054;DHT22;3055;50.886;14.814;2022-11-12T13:26:53;11.70;21.10
6054;DHT22;3055;50.886;14.814;2022-11-12T13:29:38;11.90;55.30
6054;DHT22;3055;50.886;14.814;2022-11-12T13:32:38;12.10;1.00
6054;DHT22;3055;50.886;14.814;2022-11-12T13:35:24;12.40;82.90
6054;DHT22;3055;50.886;14.814;2022-11-12T13:37:56;12.70;1.00
6054;DHT22;3055;50.886;14.814;2022-11-12T13:40:44;12.90;99.90
6054;DHT22;3055;50.886;14.814;2022-11-12T13:43:23;13.00;50.30
6054;DHT22;3055;50.886;14.814;2022-11-12T13:45:58;13.20;41.80
6054;DHT22;3055;50.886;14.814;2022-11-12T13:48:35;13.20;99.90
6054;DHT22;3055;50.886;14.814;2022-11-12T13:51:10;13.10;99.90
6054;DHT22;3055;50.886;14.814;2022-11-12T13:53:38;12.80;1.00
6054;DHT22;3055;50.886;14.814;2022-11-12T13:56:05;12.50;1.00
6054;DHT22;3055;50.886;14.814;2022-11-12T13:58:35;12.20;1.00
6054;DHT22;3055;50.886;14.814;2022-11-12T14:01:05;12.10;1.00
6054;DHT22;3055;50.886;14.814;2022-11-12T14:03:44;11.80;99.90
6054;DHT22;3055;50.886;14.814;2022-11-12T14:06:20;11.60;99.90
6054;DHT22;3055;50.886;14.814;2022-11-12T14:09:12;11.40;1.00
6054;DHT22;3055;50.886;14.814;2022-11-12T14:11:55;11.20;99.90
6054;DHT22;3055;50.886;14.814;2022-11-12T14:14:38;11.10;99.90
6054;DHT22;3055;50.886;14.814;2022-11-12T14:17:18;11.00;99.90
6054;DHT22;3055;50.886;14.814;2022-11-12T14:22:55;10.90;1.00
6054;DHT22;3055;50.886;14.814;2022-11-12T14:25:24;10.80;1.00
6054;DHT22;3055;50.886;14.814;2022-11-12T14:27:52;10.60;1.00
6054;DHT22;3055;50.886;14.814;2022-11-12T14:30:23;10.50;1.00
6054;DHT22;3055;50.886;14.814;2022-11-12T14:32:52;10.50;1.00
6054;DHT22;3055;50.886;14.814;2022-11-12T14:35:28;10.40;1.00
6054;DHT22;3055;50.886;14.814;2022-11-12T14:37:59;10.30;1.00
6054;DHT22;3055;50.886;14.814;2022-11-12T14:40:31;10.20;1.00
6054;DHT22;3055;50.886;14.814;2022-11-12T14:42:58;10.10;1.00
6054;DHT22;3055;50.886;14.814;2022-11-12T14:45:27;9.90;1.00
6054;DHT22;3055;50.886;14.814;2022-11-12T14:47:54;9.80;1.00
6054;DHT22;3055;50.886;14.814;2022-11-12T14:50:26;9.60;1.00
6054;DHT22;3055;50.886;14.814;2022-11-12T14:52:57;9.40;1.00
6054;DHT22;3055;50.886;14.814;2022-11-12T14:55:29;9.20;9.80
6054;DHT22;3055;50.886;14.814;2022-11-12T14:57:56;9.10;27.50
6054;DHT22;3055;50.886;14.814;2022-11-12T15:00:38;8.90;38.90
6054;DHT22;3055;50.886;14.814;2022-11-12T15:03:07;8.70;55.10
6054;DHT22;3055;50.886;14.814;2022-11-12T15:05:52;8.60;76.80
6054;DHT22;3055;50.886;14.814;2022-11-12T15:08:28;8.30;92.40
6054;DHT22;3055;50.886;14.814;2022-11-12T15:10:55;8.30;99.90
6054;DHT22;3055;50.886;14.814;2022-11-12T15:13:25;8.10;99.90
6054;DHT22;3055;50.886;14.814;2022-11-12T15:15:58;7.90;99.90
6054;DHT22;3055;50.886;14.814;2022-11-12T15:18:29;7.80;99.90
6054;DHT22;3055;50.886;14.814;2022-11-12T15:21:06;7.70;99.90
6054;DHT22;3055;50.886;14.814;2022-11-12T15:23:35;7.40;99.90
6054;DHT22;3055;50.886;14.814;2022-11-12T15:26:22;7.50;99.90
6054;DHT22;3055;50.886;14.814;2022-11-12T15:29:00;7.40;99.90
6054;DHT22;3055;50.886;14.814;2022-11-12T15:31:28;7.30;99.90
6054;DHT22;3055;50.886;14.814;2022-11-12T15:34:23;7.00;99.90
6054;DHT22;3055;50.886;14.814;2022-11-12T15:36:51;6.80;99.90
6054;DHT22;3055;50.886;14.814;2022-11-12T15:39:19;6.70;99.90
6054;DHT22;3055;50.886;14.814;2022-11-12T15:41:46;6.60;99.90
6054;DHT22;3055;50.886;14.814;2022-11-12T15:44:13;6.50;99.90
6054;DHT22;3055;50.886;14.814;2022-11-12T15:46:42;6.30;99.90
6054;DHT22;3055;50.886;14.814;2022-11-12T15:49:11;6.30;99.90
6054;DHT22;3055;50.886;14.814;2022-11-12T15:51:38;6.20;99.90
6054;DHT22;3055;50.886;14.814;2022-11-12T15:54:05;6.10;99.90
6054;DHT22;3055;50.886;14.814;2022-11-12T15:56:32;6.20;99.90
6054;DHT22;3055;50.886;14.814;2022-11-12T15:58:59;6.10;99.90
6054;DHT22;3055;50.886;14.814;2022-11-12T16:01:26;6.10;99.90
6054;DHT22;3055;50.886;14.814;2022-11-12T16:03:55;6.00;99.90
6054;DHT22;3055;50.886;14.814;2022-11-12T16:06:22;5.80;99.90
6054;DHT22;3055;50.886;14.814;2022-11-12T16:08:49;5.70;99.90
6054;DHT22;3055;50.886;14.814;2022-11-12T16:11:16;5.70;99.90
6054;DHT22;3055;50.886;14.814;2022-11-12T16:13:57;5.60;99.90
6054;DHT22;3055;50.886;14.814;2022-11-12T16:16:24;5.50;99.90
6054;DHT22;3055;50.886;14.814;2022-11-12T16:18:51;5.40;99.90
6054;DHT22;3055;50.886;14.814;2022-11-12T16:21:20;5.30;99.90
6054;DHT22;3055;50.886;14.814;2022-11-12T16:23:47;5.20;99.90
6054;DHT22;3055;50.886;14.814;2022-11-12T16:26:15;5.10;99.90
6054;DHT22;3055;50.886;14.814;2022-11-12T16:28:43;5.10;99.90
6054;DHT22;3055;50.886;14.814;2022-11-12T16:31:10;4.90;99.90
6054;DHT22;3055;50.886;14.814;2022-11-12T16:33:37;4.80;99.90